M I D A S
Marine Information and Data Acquisition System
Tripno 592 of the Zeeleeuw from 2003-09-17 06:21:40 to 2003-09-17 11:50:16
Back to CruiseResearch ActivitiesStationsMapUnderway DataData graphs

EquipmentUnitsComment
TimeDGPSUTC
LatitudeDGPSDM.mWGS84
LongitudeDGPSDM.mWGS84
HeadingGyrodeg 
SOGDGPSknotsSpeed over ground
COGDGPSdegCourse over ground
DepthEcho soundermeters200 kHz
Missing or incorrect values are displayed as -999
Navigation data collected by the RV Zeeleeuw from 2003-09-17 06:21:40 to 2003-09-17 11:50:16
Time Latitude Longitude Heading SOG COG Depth
2003-09-17 06:22:46 51°13.84 2°55.62 337.1 7.1 333 11.9
2003-09-17 06:23:44 51°13.95 2°55.54 341.6 7.7 336 12.3
2003-09-17 06:24:44 51°14.07 2°55.46 342.7 8 337 11.7
2003-09-17 06:25:44 51°14.2 2°55.35 333.7 10.4 327 12.1
2003-09-17 06:26:44 51°14.33 2°55.14 312 11 306 12.3
2003-09-17 06:27:44 51°14.44 2°54.89 309 12.3 301 12.2
2003-09-17 06:28:44 51°14.47 2°54.58 261.2 12.5 255 12
2003-09-17 06:29:44 51°14.37 2°54.28 245.9 12.8 243 10.5
2003-09-17 06:30:44 51°14.27 2°53.97 245.3 13.2 241 10.4
2003-09-17 06:31:44 51°14.17 2°53.66 246.6 13.3 243 10.4
2003-09-17 06:32:46 51°14.07 2°53.33 245.1 13.4 242 10.8
2003-09-17 06:33:46 51°13.96 2°53.02 247.2 13.5 243 11.1
2003-09-17 06:34:44 51°13.86 2°52.71 245.7 13.6 241 11.4
2003-09-17 06:35:44 51°13.76 2°52.39 245.4 13.6 242 11.5
2003-09-17 06:36:44 51°13.65 2°52.08 245.4 13.6 242 11.7
2003-09-17 06:37:44 51°13.54 2°51.76 246 13.6 242 11.6
2003-09-17 06:38:44 51°13.44 2°51.44 247.1 13.6 243 11.9
2003-09-17 06:39:46 51°13.33 2°51.11 245.9 13.5 242 12.1
2003-09-17 06:40:44 51°13.23 2°50.8 246.1 13.5 242 12.1
2003-09-17 06:41:44 51°13.12 2°50.48 246 13.5 242 12.3
2003-09-17 06:42:44 51°13.02 2°50.16 246.8 13.6 242 12.4
2003-09-17 06:43:44 51°12.91 2°49.85 244.7 13.6 241 12.4
2003-09-17 06:44:44 51°12.8 2°49.54 245.5 13.6 242 12.6
2003-09-17 06:45:44 51°12.69 2°49.22 245.4 13.6 241 12.7
2003-09-17 06:46:44 51°12.59 2°48.89 248.9 13.6 245 12.9
2003-09-17 06:47:44 51°12.49 2°48.57 248 13.7 245 12.9
2003-09-17 06:48:44 51°12.39 2°48.24 248.2 13.7 244 13
2003-09-17 06:49:44 51°12.29 2°47.91 248.4 13.8 246 13.3
2003-09-17 06:50:48 51°12.19 2°47.55 250.1 13.7 247 13.5
2003-09-17 06:51:48 51°12.11 2°47.22 250.3 13.6 247 13.5
2003-09-17 06:52:48 51°12.02 2°46.89 251.1 13.6 248 13.5
2003-09-17 06:53:48 51°11.93 2°46.56 250.4 13.6 247 13.6
2003-09-17 06:54:48 51°11.84 2°46.23 249.8 13.7 246 13.6
2003-09-17 06:55:48 51°11.75 2°45.89 250.1 13.7 246 13.6
2003-09-17 06:56:48 51°11.66 2°45.56 249.8 13.7 246 13.5
2003-09-17 06:57:48 51°11.57 2°45.23 250.1 13.7 246 13.5
2003-09-17 06:58:48 51°11.48 2°44.89 251 13.7 247 13.2
2003-09-17 06:59:48 51°11.38 2°44.56 249.9 13.8 247 13.3
2003-09-17 07:00:48 51°11.29 2°44.22 249.4 13.8 246 13.2
2003-09-17 07:01:48 51°11.2 2°43.89 250 13.7 246 13
2003-09-17 07:02:48 51°11.12 2°43.55 251.2 13.8 248 12.8
2003-09-17 07:03:48 51°11.02 2°43.22 248.2 13.8 245 12.9
2003-09-17 07:04:48 51°10.92 2°42.89 247.5 13.8 244 12.5
2003-09-17 07:05:48 51°10.82 2°42.56 247.5 13.9 245 12.6
2003-09-17 07:06:48 51°10.72 2°42.23 246.7 13.9 244 12.3
2003-09-17 07:07:48 51°10.62 2°41.9 248.2 13.9 245 12.2
2003-09-17 07:08:48 51°10.52 2°41.57 247.2 13.7 244 12.1
2003-09-17 07:09:48 51°10.42 2°41.24 247.3 13.7 245 12
2003-09-17 07:10:48 51°10.33 2°40.91 247.3 13.9 245 11.9
2003-09-17 07:11:48 51°10.23 2°40.57 247.3 13.9 245 11.8
2003-09-17 07:12:48 51°10.13 2°40.24 243.6 14 241 11.6
2003-09-17 07:13:48 51°10 2°39.93 239.6 14.1 238 11.3
2003-09-17 07:14:48 51°9.88 2°39.61 241.5 14.1 240 11
2003-09-17 07:15:48 51°9.76 2°39.29 242.7 14 240 11.1
2003-09-17 07:16:48 51°9.65 2°38.96 242.2 14.1 240 11
2003-09-17 07:17:48 51°9.53 2°38.64 243 14.1 241 11
2003-09-17 07:18:48 51°9.42 2°38.31 242.1 14.1 241 10.8
2003-09-17 07:19:48 51°9.3 2°37.99 242.8 14.1 241 10.7
2003-09-17 07:20:48 51°9.19 2°37.66 242.9 13.9 241 10.2
2003-09-17 07:21:48 51°9.14 2°37.42 271.6 6.8 269 10.5
2003-09-17 07:22:54 51°9.16 2°37.28 296 4.1 290 10.8
2003-09-17 07:23:54 51°9.16 2°37.24 295.3 0.4 248 10.8
2003-09-17 07:24:54 51°9.16 2°37.23 296.1 0.6 270 -999
2003-09-17 07:25:54 51°9.16 2°37.21 289.7 0.8 283 -999
2003-09-17 07:26:54 51°9.17 2°37.19 284 0.9 287 11
2003-09-17 07:27:54 51°9.17 2°37.16 281.2 0.9 285 11.1
2003-09-17 07:28:56 51°9.17 2°37.13 262 2.4 259 11.1
2003-09-17 07:29:58 51°9.13 2°37.08 189.1 3.5 192 10.8
2003-09-17 07:31:02 51°9.09 2°37.12 106.4 3.1 101 10.3
2003-09-17 07:32:02 51°9.1 2°37.18 64.5 1.1 48 10.3
2003-09-17 07:33:08 51°9.11 2°37.19 80 0.5 49 10.3
2003-09-17 07:34:12 51°9.12 2°37.2 83.9 0.3 55 10.5
2003-09-17 07:35:12 51°9.12 2°37.2 84.9 0.2 31 10.5
2003-09-17 07:36:12 51°9.12 2°37.21 86.5 0.1 28 10.4
2003-09-17 07:37:14 51°9.13 2°37.21 87.3 0.2 336 10.3
2003-09-17 07:38:14 51°9.13 2°37.2 88.2 0.2 312 10.5
2003-09-17 07:39:14 51°9.13 2°37.2 88.5 0.2 282 10.4
2003-09-17 07:40:12 51°9.13 2°37.2 88.6 0.2 310 10.4
2003-09-17 07:41:14 51°9.13 2°37.19 89.6 0.2 287 10.4
2003-09-17 07:42:14 51°9.13 2°37.18 90.6 0.3 281 10.5
2003-09-17 07:43:12 51°9.13 2°37.18 91.4 0.3 268 10.4
2003-09-17 07:44:14 51°9.13 2°37.17 92.1 0.3 273 10.4
2003-09-17 07:45:14 51°9.13 2°37.16 92.9 0.3 282 10.5
2003-09-17 07:46:14 51°9.13 2°37.15 94.1 0.3 266 10.4
2003-09-17 07:47:14 51°9.13 2°37.15 95.2 0.4 259 10.3
2003-09-17 07:48:14 51°9.13 2°37.14 97.2 0.1 251 10.5
2003-09-17 07:49:14 51°9.13 2°37.15 111 0.8 129 10.4
2003-09-17 07:50:18 51°9.12 2°37.17 125.3 1 145 10.2
2003-09-17 07:51:18 51°9.1 2°37.18 138.8 1.2 166 10
2003-09-17 07:52:22 51°9.08 2°37.18 153.1 1.3 183 10
2003-09-17 07:53:22 51°9.05 2°37.17 167.2 1.6 195 9.7
2003-09-17 07:54:22 51°9.03 2°37.16 185.4 1.9 208 9.5
2003-09-17 07:55:22 51°9 2°37.12 204 2.2 221 9.3
2003-09-17 07:56:22 51°8.96 2°37.04 247.5 7.1 249 9
2003-09-17 07:57:22 51°8.93 2°36.74 270.9 13.4 267 8.7
2003-09-17 07:58:22 51°8.92 2°36.38 270.6 13.7 267 9.3
2003-09-17 07:59:22 51°8.91 2°36.02 271.5 13.7 267 11.2
2003-09-17 08:00:22 51°8.89 2°35.66 264.9 13.7 261 13.5
2003-09-17 08:01:22 51°8.84 2°35.31 263 13.6 259 15.1
2003-09-17 08:02:22 51°8.8 2°34.95 261.2 13.6 257 16.1
2003-09-17 08:03:22 51°8.73 2°34.61 257.1 13.7 254 16.5
2003-09-17 08:04:22 51°8.63 2°34.28 242.8 13.6 240 16.6
2003-09-17 08:05:22 51°8.52 2°33.97 241.4 13.6 239 16.4
2003-09-17 08:06:22 51°8.41 2°33.66 242.9 13.6 241 16
2003-09-17 08:07:22 51°8.29 2°33.36 236.6 11.1 234 16.3
2003-09-17 08:08:22 51°8.21 2°33.2 223.4 6.6 225 16.4
2003-09-17 08:09:22 51°8.14 2°33.09 219.8 5.2 223 15.9
2003-09-17 08:10:22 51°8.08 2°33.01 217.1 3.8 223 15.4
2003-09-17 08:11:28 51°8.07 2°32.97 221.3 0.7 277 -999
2003-09-17 08:12:26 51°8.06 2°32.95 223.9 0.8 275 15.5
2003-09-17 08:13:26 51°8.07 2°32.93 232.2 0.5 321 15.7
2003-09-17 08:14:32 51°8.08 2°32.93 248.9 0.4 331 15.7
2003-09-17 08:15:32 51°8.08 2°32.92 260.3 0.4 282 15.9
2003-09-17 08:16:32 51°8.08 2°32.91 269.6 0.6 270 15.9
2003-09-17 08:17:32 51°8.08 2°32.89 276.2 0.7 267 15.9
2003-09-17 08:18:36 51°8.08 2°32.87 280.1 0.9 266 15.7
2003-09-17 08:19:36 51°8.08 2°32.84 282.3 1 268 15.9
2003-09-17 08:20:37 51°8.08 2°32.81 282 1.1 266 16
2003-09-17 08:21:37 51°8.07 2°32.78 277.9 2 266 16.1
2003-09-17 08:22:37 51°8.03 2°32.71 194.5 4.6 197 15.9
2003-09-17 08:23:37 51°7.98 2°32.76 100.8 3.7 95 14.8
2003-09-17 08:24:37 51°8.02 2°32.87 63.5 5.9 58 15.1
2003-09-17 08:25:38 51°8.08 2°33 57.2 4.4 48 15.4
2003-09-17 08:26:36 51°8.1 2°33.01 62.4 0.4 342 15.6
2003-09-17 08:27:38 51°8.1 2°33.01 70 0.2 324 15.7
2003-09-17 08:28:36 51°8.11 2°33.01 79.1 0.2 275 15.7
2003-09-17 08:29:36 51°8.11 2°33 81.5 0.3 259 15.7
2003-09-17 08:30:36 51°8.11 2°32.99 81.8 0.4 267 15.6
2003-09-17 08:31:36 51°8.11 2°32.98 76.2 0.3 277 15.8
2003-09-17 08:32:36 51°8.11 2°32.97 80   349 15.8
2003-09-17 08:33:36 51°8.11 2°32.98 91.8 0.3 122 15.7
2003-09-17 08:34:36 51°8.1 2°32.99 106.2 0.8 138 15.5
2003-09-17 08:35:36 51°8.09 2°33 120.6 1.1 154 15.5
2003-09-17 08:36:36 51°8.07 2°33.01 134.1 1.4 163 15.1
2003-09-17 08:37:36 51°8.04 2°33.02 148.4 1.7 177 14.8
2003-09-17 08:38:36 51°8.01 2°33.02 163.9 1.9 189 13.9
2003-09-17 08:39:38 51°7.96 2°32.97 222 7.3 233 13
2003-09-17 08:40:36 51°7.95 2°32.69 294.2 12.9 293 14.4
2003-09-17 08:41:36 51°8.11 2°32.47 344.2 12.6 336 17.2
2003-09-17 08:42:36 51°8.29 2°32.29 340.7 12.7 334 17.4
2003-09-17 08:43:36 51°8.45 2°32.29 36.2 6.3 28 18.5
2003-09-17 08:44:36 51°8.51 2°32.34 37.5 1.8 19 18.3
2003-09-17 08:45:36 51°8.52 2°32.34 57.7 0.6 17 18.4
2003-09-17 08:46:36 51°8.53 2°32.35 69.6 0.3 27 18.3
2003-09-17 08:47:38 51°8.53 2°32.35 76.8 0.1 23 18.2
2003-09-17 08:48:36 51°8.53 2°32.35 82.4 0.1 249 18.3
2003-09-17 08:49:42 51°8.53 2°32.34 90 0.2 237 18.3
2003-09-17 08:50:42 51°8.53 2°32.34 97 0.3 242 18.3
2003-09-17 08:51:42 51°8.52 2°32.33 103.8 0.5 229 18.4
2003-09-17 08:52:42 51°8.52 2°32.32 110.1 0.5 233 18.4
2003-09-17 08:53:42 51°8.51 2°32.31 115.4 0.6 237 18.2
2003-09-17 08:54:42 51°8.51 2°32.29 119.1 0.6 240 18.3
2003-09-17 08:55:42 51°8.5 2°32.28 119.7 0.6 215 18.3
2003-09-17 08:56:42 51°8.49 2°32.27 115.9 0.6 186 18.3
2003-09-17 08:57:42 51°8.48 2°32.27 104.8 0.5 164 18.6
2003-09-17 08:58:42 51°8.48 2°32.28 84.5 0.3 125 18.5
2003-09-17 08:59:42 51°8.48 2°32.28 62.9 0.2 11 18.3
2003-09-17 09:00:42 51°8.48 2°32.28 55.8 0.3 347 18.4
2003-09-17 09:01:42 51°8.49 2°32.28 64.8 0.2 316 18.3
2003-09-17 09:02:42 51°8.49 2°32.28 72.5 0.2 262 18.4
2003-09-17 09:03:42 51°8.49 2°32.28 80.9 0.7 91 18.4
2003-09-17 09:04:42 51°8.48 2°32.3 87.1 0.9 101 18.4
2003-09-17 09:05:42 51°8.48 2°32.32 92.5 0.9 115 18.3
2003-09-17 09:06:42 51°8.47 2°32.34 97.7 0.9 126 18.2
2003-09-17 09:07:42 51°8.46 2°32.36 102.3 1 135 18.3
2003-09-17 09:08:42 51°8.45 2°32.38 106 1 145 18.2
2003-09-17 09:09:42 51°8.43 2°32.39 109.7 0.9 158 18.1
2003-09-17 09:10:42 51°8.42 2°32.4 112 1.2 142 18.1
2003-09-17 09:11:42 51°8.47 2°32.49 26.1 9.2 12 17.9
2003-09-17 09:12:42 51°8.66 2°32.53 18.1 11.8 8 17.8
2003-09-17 09:13:42 51°8.85 2°32.54 21.5 11.1 14 17.6
2003-09-17 09:14:48 51°9 2°32.56 10.3 5.3 358 13.5
2003-09-17 09:15:48 51°9.06 2°32.6 58.2 2.9 52 11.8
2003-09-17 09:16:50 51°9.08 2°32.65 69.1 1.7 65 12
2003-09-17 09:17:50 51°9.09 2°32.67 69.7 0.7 61 12
2003-09-17 09:18:50 51°9.09 2°32.68 77 0.4 77 12.2
2003-09-17 09:19:48 51°9.09 2°32.69 86 0.2 141 12.3
2003-09-17 09:20:56 51°9.09 2°32.69 93.4 0.3 198 12.5
2003-09-17 09:21:56 51°9.08 2°32.69 94.3 0.3 221 12.5
2003-09-17 09:22:56 51°9.08 2°32.68 94.7 0.4 228 12.5
2003-09-17 09:23:56 51°9.07 2°32.67 95 0.5 238 12.5
2003-09-17 09:24:56 51°9.07 2°32.66 90.6 0.3 216 12.6
2003-09-17 09:25:56 51°9.07 2°32.66 76.3 0.1 106 12.7
2003-09-17 09:26:56 51°9.07 2°32.67 74 0.3 77 12.8
2003-09-17 09:27:56 51°9.07 2°32.68 78.1 0.5 81 12.9
2003-09-17 09:28:56 51°9.07 2°32.69 82 0.5 98 13.1
2003-09-17 09:29:56 51°9.07 2°32.7 66.5 0.3 57 13.2
2003-09-17 09:30:56 51°9.07 2°32.7 46 0.4 341 13.1
2003-09-17 09:31:56 51°9.08 2°32.7 37 0.6 334 12.5
2003-09-17 09:32:56 51°9.09 2°32.69 51.1 0.4 346 12.2
2003-09-17 09:33:56 51°9.09 2°32.69 67.1 0.2 23 11.9
2003-09-17 09:34:56 51°9.09 2°32.7 84.8 0.4 115 12.1
2003-09-17 09:35:56 51°9.09 2°32.71 106.6 1.2 139 12.6
2003-09-17 09:36:56 51°9.07 2°32.74 122.7 2.1 142 13.9
2003-09-17 09:37:56 51°9.03 2°32.77 132.3 2.4 154 15.8
2003-09-17 09:38:56 51°9 2°32.79 144.7 2.2 174 16.8
2003-09-17 09:39:56 51°8.96 2°32.79 154.4 2 187 17.3
2003-09-17 09:40:56 51°8.92 2°32.77 186.1 3.4 203 17.7
2003-09-17 09:41:56 51°8.87 2°32.67 257.2 6.3 254 17.8
2003-09-17 09:42:56 51°8.9 2°32.51 331.1 6 320 16.3
2003-09-17 09:43:56 51°8.99 2°32.5 23.6 6 13 12.4
2003-09-17 09:44:56 51°9.09 2°32.57 41.9 6.5 34 10.6
2003-09-17 09:45:56 51°9.18 2°32.67 45.7 6.8 39 9.4
2003-09-17 09:46:56 51°9.27 2°32.81 52.1 8.1 46 8.9
2003-09-17 09:47:56 51°9.36 2°32.97 51.3 8.5 45 8.7
2003-09-17 09:48:56 51°9.46 2°33.13 54.5 8.6 48 8.9
2003-09-17 09:49:56 51°9.56 2°33.29 53.2 8.6 47 8.8
2003-09-17 09:50:56 51°9.66 2°33.46 53.7 8.6 47 8.8
2003-09-17 09:51:56 51°9.76 2°33.63 53 9.9 46 9.1
2003-09-17 09:52:56 51°9.89 2°33.84 53.3 11.1 47 9
2003-09-17 09:53:56 51°10.02 2°34.06 52.9 12.2 46 8.9
2003-09-17 09:54:56 51°10.16 2°34.31 55.3 12.6 49 8.3
2003-09-17 09:55:56 51°10.29 2°34.56 55.1 12.4 48 7.8
2003-09-17 09:56:56 51°10.42 2°34.82 59.5 12.1 53 7.6
2003-09-17 09:57:56 51°10.56 2°35.06 52.8 12.3 49 7.8
2003-09-17 09:58:56 51°10.69 2°35.31 52.8 12.4 45 8.2
2003-09-17 09:59:56 51°10.84 2°35.54 56.6 12.4 51 8.7
2003-09-17 10:00:56 51°10.98 2°35.78 53.8 12.6 48 8.8
2003-09-17 10:01:54 51°11.11 2°36.02 54.4 12.6 49 9.2
2003-09-17 10:02:56 51°11.26 2°36.28 53.7 12.6 48 9.6
2003-09-17 10:03:56 51°11.4 2°36.52 53.7 12.6 47 10.2
2003-09-17 10:04:56 51°11.55 2°36.77 53.1 12.6 47 10.7
2003-09-17 10:05:56 51°11.69 2°37.02 54.3 12.5 49 11
2003-09-17 10:06:56 51°11.82 2°37.27 54.9 12.5 49 11.8
2003-09-17 10:07:56 51°11.96 2°37.51 54.2 12.6 49 12.1
2003-09-17 10:08:56 51°12.1 2°37.76 53.7 12.6 49 12.3
2003-09-17 10:09:56 51°12.24 2°38.01 54.3 12.5 49 12.2
2003-09-17 10:10:56 51°12.38 2°38.27 54.8 12.6 49 12.3
2003-09-17 10:11:56 51°12.51 2°38.52 54.1 12.6 48 12.3
2003-09-17 10:12:56 51°12.65 2°38.77 54.8 12.7 49 12.2
2003-09-17 10:13:56 51°12.79 2°39.02 53.5 12.6 49 12.3
2003-09-17 10:14:56 51°12.93 2°39.27 54.2 12.4 49 12.8
2003-09-17 10:15:56 51°13.07 2°39.52 55.1 12.5 49 12.5
2003-09-17 10:16:56 51°13.21 2°39.76 55.2 12.3 49 13.7
2003-09-17 10:17:56 51°13.34 2°40 54 12.2 47 13.2
2003-09-17 10:18:56 51°13.48 2°40.24 53.7 12.1 45 14.5
2003-09-17 10:19:54 51°13.63 2°40.45 48.8 12.3 41 14.7
2003-09-17 10:20:56 51°13.79 2°40.67 49.1 12.3 42 15
2003-09-17 10:21:56 51°13.93 2°40.87 48.5 9.1 39 14.7
2003-09-17 10:22:56 51°14.03 2°40.96 32.5 5 17 14.5
2003-09-17 10:23:56 51°14.09 2°40.97 11.1 2.9 346 14
2003-09-17 10:24:56 51°14.14 2°40.97 44.9 2.5 28 13.8
2003-09-17 10:25:56 51°14.15 2°40.98 78.4 0.1 135 13.8
2003-09-17 10:26:56 51°14.15 2°40.98 88.9 0.5 126 13.7
2003-09-17 10:27:56 51°14.14 2°41.01 92.9 1.1 115 13.9
2003-09-17 10:28:56 51°14.13 2°41.03 98.7 1.1 125 13.9
2003-09-17 10:29:56 51°14.12 2°41.05 82.7 0.6 118 14.2
2003-09-17 10:30:56 51°14.12 2°41.06 60.2 0.3 32 14.2
2003-09-17 10:31:56 51°14.13 2°41.06 58.4 0.4 29 14.3
2003-09-17 10:32:56 51°14.13 2°41.07 64.4 0.4 50 14
2003-09-17 10:33:56 51°14.13 2°41.08 68.8 0.5 70 14.3
2003-09-17 10:34:56 51°14.14 2°41.09 72.1 0.5 82 14.2
2003-09-17 10:35:56 51°14.14 2°41.1 59.8 0.4 19 14.2
2003-09-17 10:36:56 51°14.15 2°41.1 50.3 0.3 334 14.2
2003-09-17 10:37:56 51°14.15 2°41.09 54.8 0.2 293 14.2
2003-09-17 10:38:56 51°14.15 2°41.08 64.1 0.3 256 14
2003-09-17 10:39:56 51°14.15 2°41.07 73.2 0.4 237 14.1
2003-09-17 10:40:56 51°14.14 2°41.06 79.7 0.6 224 14.1
2003-09-17 10:41:56 51°14.13 2°41.05 87.1 0.7 220 14.1
2003-09-17 10:42:56 51°14.13 2°41.04 92.5 0.7 219 14.1
2003-09-17 10:43:56 51°14.12 2°41.03 98.5 0.7 200 14
2003-09-17 10:44:56 51°14.1 2°41.03 114.8 1.1 182 14.1
2003-09-17 10:45:56 51°14.08 2°41.03 132.4 1.4 178 14.4
2003-09-17 10:46:56 51°14.05 2°41.02 149.6 1.9 188 14.6
2003-09-17 10:47:56 51°14.02 2°41.02 156.1 2.1 188 14.8
2003-09-17 10:48:56 51°13.98 2°41.01 160.3 2.3 189 15.2
2003-09-17 10:49:56 51°13.94 2°40.99 169.9 2.6 197 15
2003-09-17 10:50:56 51°13.88 2°41.02 129.6 5.7 139 15.5
2003-09-17 10:51:56 51°13.85 2°41.2 84 8.8 81 15.9
2003-09-17 10:52:56 51°13.91 2°41.48 72.5 11.9 69 16.2
2003-09-17 10:53:56 51°13.97 2°41.78 79 12 77 16.4
2003-09-17 10:54:56 51°14.01 2°42.09 78 12.1 76 15.8
2003-09-17 10:55:56 51°14.06 2°42.4 78.8 12 77 15.5
2003-09-17 10:56:56 51°14.11 2°42.72 79.3 12.1 77 15.2
2003-09-17 10:57:56 51°14.15 2°43.03 79.1 12.1 77 15.1
2003-09-17 10:58:56 51°14.21 2°43.34 74.8 12.2 73 14.9
2003-09-17 10:59:56 51°14.27 2°43.64 74.7 12.2 72 14.2
2003-09-17 11:00:56 51°14.33 2°43.95 74.5 12.2 72 13.7
2003-09-17 11:01:56 51°14.39 2°44.26 74.4 12.2 71 12.9
2003-09-17 11:02:56 51°14.46 2°44.57 73.9 12.3 70 12
2003-09-17 11:03:56 51°14.52 2°44.88 74.6 12.3 72 11
2003-09-17 11:04:56 51°14.58 2°45.19 75.9 12.4 72 10.1
2003-09-17 11:05:56 51°14.65 2°45.5 75.4 12.4 72 9
2003-09-17 11:06:56 51°14.71 2°45.82 76.9 12.3 73 8.3
2003-09-17 11:07:56 51°14.77 2°46.13 77.8 12.4 75 8.1
2003-09-17 11:08:56 51°14.83 2°46.44 77.1 12.5 74 8.3
2003-09-17 11:09:56 51°14.9 2°46.76 74.8 12.6 73 8.6
2003-09-17 11:10:56 51°14.96 2°47.07 72 12.6 68 8.9
2003-09-17 11:11:56 51°15.03 2°47.39 75.7 12.6 72 9.5
2003-09-17 11:12:56 51°15.09 2°47.71 74.6 12.6 71 10.2
2003-09-17 11:13:56 51°15.15 2°48.02 76.1 12.4 73 11.4
2003-09-17 11:14:56 51°15.21 2°48.34 76.7 12.5 73 12.1
2003-09-17 11:15:56 51°15.27 2°48.65 76.1 12.4 73 12.5
2003-09-17 11:16:56 51°15.29 2°48.98 91.1 12.4 89 12.5
2003-09-17 11:17:56 51°15.3 2°49.31 89.7 12.5 88 12.4
2003-09-17 11:18:56 51°15.3 2°49.64 89.1 12.4 88 12.4
2003-09-17 11:19:56 51°15.31 2°49.97 89.8 12.4 88 12.4
2003-09-17 11:20:56 51°15.32 2°50.3 89.5 12.3 87 12.5
2003-09-17 11:21:56 51°15.32 2°50.62 91.4 12.3 90 12.5
2003-09-17 11:22:56 51°15.32 2°50.95 90.9 12.4 89 12.3
2003-09-17 11:23:56 51°15.32 2°51.28 92.2 12.4 92 12.1
2003-09-17 11:24:56 51°15.29 2°51.61 103 12.6 104 11.6
2003-09-17 11:25:56 51°15.23 2°51.93 107.7 12.6 108 11.2
2003-09-17 11:26:56 51°15.14 2°52.24 116.1 12.9 117 10.7
2003-09-17 11:27:56 51°15.04 2°52.54 116.1 12.8 117 10.3
2003-09-17 11:28:56 51°14.94 2°52.84 116.4 12.8 117 9.7
2003-09-17 11:29:56 51°14.85 2°53.15 113.3 12.9 114 9.6
2003-09-17 11:30:56 51°14.76 2°53.46 113.8 12.9 114 9.9
2003-09-17 11:31:56 51°14.69 2°53.77 110.8 12.3 111 9.8
2003-09-17 11:32:56 51°14.62 2°54.08 110 12.1 109 11.4
2003-09-17 11:33:56 51°14.56 2°54.38 103.9 11.8 103 10.6
2003-09-17 11:34:56 51°14.5 2°54.68 109.7 12.1 110 10.4
2003-09-17 11:35:56 51°14.41 2°54.97 121.2 12.3 121 10.2
2003-09-17 11:36:56 51°14.3 2°55.21 133.5 9.7 131 10.6
2003-09-17 11:37:56 51°14.2 2°55.36 150.6 7.3 148 10.9
2003-09-17 11:38:56 51°14.09 2°55.45 157.9 7.1 155 10
2003-09-17 11:39:56 51°13.98 2°55.53 158.9 7.1 155 10.5
2003-09-17 11:40:56 51°13.87 2°55.6 159.4 7.2 156 10.3
2003-09-17 11:41:56 51°13.77 2°55.69 148 7.1 144 10.9
2003-09-17 11:42:56 51°13.69 2°55.83 130.4 7.1 126 10
2003-09-17 11:43:56 51°13.64 2°55.96 117.6 4.6 114 10.6
2003-09-17 11:44:56 51°13.61 2°56.05 114.6 3.2 111 8.6
2003-09-17 11:45:56 51°13.6 2°56.1 121.5 0.8 120 6.9
2003-09-17 11:46:56 51°13.6 2°56.11 126   57 6.9
2003-09-17 11:48:00 51°13.6 2°56.11 127.5   214 -999
2003-09-17 11:49:00 51°13.6 2°56.11 126.7   280 -999
2003-09-17 11:50:00 51°13.6 2°56.11 126.9   87 -999